sensor_id;sensor_type;location;lat;lon;timestamp;P1;durP1;ratioP1;P2;durP2;ratioP2
38399;SDS011;24180;42.676;23.320;2023-06-26T00:01:39;24.30;;;21.90;;
38399;SDS011;24180;42.676;23.320;2023-06-26T00:04:05;25.03;;;22.43;;
38399;SDS011;24180;42.676;23.320;2023-06-26T00:06:30;25.93;;;23.10;;
38399;SDS011;24180;42.676;23.320;2023-06-26T00:08:56;23.07;;;20.77;;
38399;SDS011;24180;42.676;23.320;2023-06-26T00:11:23;22.50;;;20.10;;
38399;SDS011;24180;42.676;23.320;2023-06-26T00:13:49;24.07;;;21.57;;
38399;SDS011;24180;42.676;23.320;2023-06-26T00:16:15;21.13;;;19.10;;
38399;SDS011;24180;42.676;23.320;2023-06-26T00:18:40;21.33;;;19.13;;
38399;SDS011;24180;42.676;23.320;2023-06-26T00:21:06;24.20;;;21.10;;
38399;SDS011;24180;42.676;23.320;2023-06-26T00:23:31;21.47;;;19.13;;
38399;SDS011;24180;42.676;23.320;2023-06-26T00:25:58;20.97;;;18.87;;
38399;SDS011;24180;42.676;23.320;2023-06-26T00:28:23;22.83;;;20.53;;
38399;SDS011;24180;42.676;23.320;2023-06-26T00:30:49;22.37;;;20.07;;
38399;SDS011;24180;42.676;23.320;2023-06-26T00:33:14;19.70;;;17.50;;
38399;SDS011;24180;42.676;23.320;2023-06-26T00:35:40;20.90;;;18.83;;
38399;SDS011;24180;42.676;23.320;2023-06-26T00:38:06;21.33;;;19.10;;
38399;SDS011;24180;42.676;23.320;2023-06-26T00:40:31;19.10;;;17.27;;
38399;SDS011;24180;42.676;23.320;2023-06-26T00:42:56;19.83;;;17.90;;
38399;SDS011;24180;42.676;23.320;2023-06-26T00:45:22;19.00;;;17.10;;
38399;SDS011;24180;42.676;23.320;2023-06-26T00:47:47;18.67;;;16.80;;
38399;SDS011;24180;42.676;23.320;2023-06-26T00:50:13;19.87;;;16.90;;
38399;SDS011;24180;42.676;23.320;2023-06-26T00:52:41;18.53;;;16.73;;
38399;SDS011;24180;42.676;23.320;2023-06-26T00:55:06;19.33;;;17.27;;
38399;SDS011;24180;42.676;23.320;2023-06-26T00:57:32;18.57;;;16.40;;
38399;SDS011;24180;42.676;23.320;2023-06-26T00:59:58;18.70;;;16.97;;
38399;SDS011;24180;42.676;23.320;2023-06-26T01:02:25;18.63;;;16.97;;
38399;SDS011;24180;42.676;23.320;2023-06-26T01:04:53;17.77;;;16.10;;
38399;SDS011;24180;42.676;23.320;2023-06-26T01:07:19;19.93;;;18.03;;
38399;SDS011;24180;42.676;23.320;2023-06-26T01:09:46;19.50;;;17.67;;
38399;SDS011;24180;42.676;23.320;2023-06-26T01:12:13;18.07;;;16.47;;
38399;SDS011;24180;42.676;23.320;2023-06-26T01:14:39;18.93;;;17.17;;
38399;SDS011;24180;42.676;23.320;2023-06-26T01:17:04;18.53;;;16.63;;
38399;SDS011;24180;42.676;23.320;2023-06-26T01:19:31;17.20;;;15.57;;
38399;SDS011;24180;42.676;23.320;2023-06-26T01:22:23;16.67;;;15.07;;
38399;SDS011;24180;42.676;23.320;2023-06-26T01:25:03;17.37;;;15.67;;
38399;SDS011;24180;42.676;23.320;2023-06-26T01:27:45;17.73;;;16.07;;
38399;SDS011;24180;42.676;23.320;2023-06-26T01:30:13;17.03;;;15.23;;
38399;SDS011;24180;42.676;23.320;2023-06-26T01:32:40;18.17;;;16.33;;
38399;SDS011;24180;42.676;23.320;2023-06-26T01:35:07;18.10;;;16.30;;
38399;SDS011;24180;42.676;23.320;2023-06-26T01:37:33;18.47;;;16.60;;
38399;SDS011;24180;42.676;23.320;2023-06-26T01:39:59;18.30;;;16.23;;
38399;SDS011;24180;42.676;23.320;2023-06-26T01:42:24;18.70;;;16.80;;
38399;SDS011;24180;42.676;23.320;2023-06-26T01:44:50;19.20;;;17.17;;
38399;SDS011;24180;42.676;23.320;2023-06-26T01:47:19;18.53;;;16.63;;
38399;SDS011;24180;42.676;23.320;2023-06-26T01:49:47;17.53;;;15.77;;
38399;SDS011;24180;42.676;23.320;2023-06-26T01:52:35;18.57;;;16.73;;
38399;SDS011;24180;42.676;23.320;2023-06-26T01:57:58;18.30;;;16.33;;
38399;SDS011;24180;42.676;23.320;2023-06-26T02:00:24;17.83;;;15.97;;
38399;SDS011;24180;42.676;23.320;2023-06-26T02:02:51;19.20;;;17.40;;
38399;SDS011;24180;42.676;23.320;2023-06-26T02:05:17;17.77;;;15.87;;
38399;SDS011;24180;42.676;23.320;2023-06-26T02:07:42;18.37;;;16.57;;
38399;SDS011;24180;42.676;23.320;2023-06-26T02:10:09;20.27;;;17.07;;
38399;SDS011;24180;42.676;23.320;2023-06-26T02:12:35;18.43;;;16.40;;
38399;SDS011;24180;42.676;23.320;2023-06-26T02:15:02;18.87;;;17.00;;
38399;SDS011;24180;42.676;23.320;2023-06-26T02:17:27;19.10;;;17.10;;
38399;SDS011;24180;42.676;23.320;2023-06-26T02:19:53;19.50;;;17.73;;
38399;SDS011;24180;42.676;23.320;2023-06-26T02:22:18;19.10;;;17.20;;
38399;SDS011;24180;42.676;23.320;2023-06-26T02:24:44;18.93;;;17.03;;
38399;SDS011;24180;42.676;23.320;2023-06-26T02:27:09;19.30;;;17.33;;
38399;SDS011;24180;42.676;23.320;2023-06-26T02:29:35;19.37;;;17.37;;
38399;SDS011;24180;42.676;23.320;2023-06-26T02:32:01;20.77;;;18.87;;
38399;SDS011;24180;42.676;23.320;2023-06-26T02:34:26;20.47;;;18.37;;
38399;SDS011;24180;42.676;23.320;2023-06-26T02:36:52;21.47;;;19.57;;
38399;SDS011;24180;42.676;23.320;2023-06-26T02:39:21;21.37;;;19.37;;
38399;SDS011;24180;42.676;23.320;2023-06-26T02:41:47;21.70;;;19.50;;
38399;SDS011;24180;42.676;23.320;2023-06-26T02:44:13;25.30;;;21.23;;
38399;SDS011;24180;42.676;23.320;2023-06-26T02:46:39;23.07;;;20.87;;
38399;SDS011;24180;42.676;23.320;2023-06-26T02:49:05;22.17;;;20.00;;
38399;SDS011;24180;42.676;23.320;2023-06-26T02:51:31;22.53;;;20.33;;
38399;SDS011;24180;42.676;23.320;2023-06-26T02:53:58;23.90;;;21.47;;
38399;SDS011;24180;42.676;23.320;2023-06-26T02:56:23;23.53;;;20.80;;
38399;SDS011;24180;42.676;23.320;2023-06-26T02:58:49;23.30;;;21.10;;
38399;SDS011;24180;42.676;23.320;2023-06-26T03:01:14;23.13;;;20.77;;
38399;SDS011;24180;42.676;23.320;2023-06-26T03:03:40;22.73;;;20.33;;
38399;SDS011;24180;42.676;23.320;2023-06-26T03:06:06;23.13;;;20.83;;
38399;SDS011;24180;42.676;23.320;2023-06-26T03:08:33;23.83;;;20.67;;
38399;SDS011;24180;42.676;23.320;2023-06-26T03:11:00;23.80;;;21.20;;
38399;SDS011;24180;42.676;23.320;2023-06-26T03:13:25;24.30;;;21.77;;
38399;SDS011;24180;42.676;23.320;2023-06-26T03:15:51;23.63;;;20.53;;
38399;SDS011;24180;42.676;23.320;2023-06-26T03:18:16;24.43;;;21.90;;
38399;SDS011;24180;42.676;23.320;2023-06-26T03:20:41;24.27;;;22.07;;
38399;SDS011;24180;42.676;23.320;2023-06-26T03:23:07;24.97;;;22.43;;
38399;SDS011;24180;42.676;23.320;2023-06-26T03:25:32;25.87;;;23.03;;
38399;SDS011;24180;42.676;23.320;2023-06-26T03:27:58;24.87;;;22.40;;
38399;SDS011;24180;42.676;23.320;2023-06-26T03:30:23;23.93;;;21.63;;
38399;SDS011;24180;42.676;23.320;2023-06-26T03:32:48;23.73;;;21.07;;
38399;SDS011;24180;42.676;23.320;2023-06-26T03:35:14;23.63;;;21.33;;
38399;SDS011;24180;42.676;23.320;2023-06-26T03:37:39;24.43;;;22.10;;
38399;SDS011;24180;42.676;23.320;2023-06-26T03:40:05;24.70;;;22.10;;
38399;SDS011;24180;42.676;23.320;2023-06-26T03:42:31;24.57;;;22.23;;
38399;SDS011;24180;42.676;23.320;2023-06-26T03:44:56;25.10;;;21.50;;
38399;SDS011;24180;42.676;23.320;2023-06-26T03:47:22;23.53;;;21.33;;
38399;SDS011;24180;42.676;23.320;2023-06-26T03:49:47;25.20;;;22.80;;
38399;SDS011;24180;42.676;23.320;2023-06-26T03:52:13;24.37;;;21.97;;
38399;SDS011;24180;42.676;23.320;2023-06-26T03:54:38;24.77;;;22.17;;
38399;SDS011;24180;42.676;23.320;2023-06-26T03:57:04;25.47;;;23.07;;
38399;SDS011;24180;42.676;23.320;2023-06-26T03:59:29;23.20;;;21.00;;
38399;SDS011;24180;42.676;23.320;2023-06-26T04:01:55;25.17;;;22.77;;
38399;SDS011;24180;42.676;23.320;2023-06-26T04:04:20;24.50;;;22.00;;
38399;SDS011;24180;42.676;23.320;2023-06-26T04:06:45;23.90;;;21.70;;
38399;SDS011;24180;42.676;23.320;2023-06-26T04:09:11;24.30;;;21.97;;
38399;SDS011;24180;42.676;23.320;2023-06-26T04:11:36;25.00;;;22.60;;
38399;SDS011;24180;42.676;23.320;2023-06-26T04:14:02;23.93;;;21.73;;
38399;SDS011;24180;42.676;23.320;2023-06-26T04:16:28;25.70;;;23.30;;
38399;SDS011;24180;42.676;23.320;2023-06-26T04:18:54;23.90;;;21.37;;
38399;SDS011;24180;42.676;23.320;2023-06-26T04:21:21;24.07;;;21.53;;
38399;SDS011;24180;42.676;23.320;2023-06-26T04:23:49;22.60;;;20.53;;
38399;SDS011;24180;42.676;23.320;2023-06-26T04:26:15;21.80;;;19.87;;
38399;SDS011;24180;42.676;23.320;2023-06-26T04:28:41;23.10;;;21.00;;
38399;SDS011;24180;42.676;23.320;2023-06-26T04:31:07;21.63;;;19.63;;
38399;SDS011;24180;42.676;23.320;2023-06-26T04:33:34;22.30;;;20.23;;
38399;SDS011;24180;42.676;23.320;2023-06-26T04:36:01;22.60;;;20.53;;
38399;SDS011;24180;42.676;23.320;2023-06-26T04:38:28;25.17;;;23.07;;
38399;SDS011;24180;42.676;23.320;2023-06-26T04:40:54;23.63;;;21.43;;
38399;SDS011;24180;42.676;23.320;2023-06-26T04:43:19;22.23;;;20.23;;
38399;SDS011;24180;42.676;23.320;2023-06-26T04:45:45;23.73;;;21.53;;
38399;SDS011;24180;42.676;23.320;2023-06-26T04:48:10;21.67;;;19.37;;
38399;SDS011;24180;42.676;23.320;2023-06-26T04:50:36;23.43;;;21.17;;
38399;SDS011;24180;42.676;23.320;2023-06-26T04:53:01;22.40;;;20.40;;
38399;SDS011;24180;42.676;23.320;2023-06-26T04:55:27;21.93;;;19.87;;
38399;SDS011;24180;42.676;23.320;2023-06-26T04:57:53;21.73;;;19.80;;
38399;SDS011;24180;42.676;23.320;2023-06-26T05:00:18;23.40;;;20.90;;
38399;SDS011;24180;42.676;23.320;2023-06-26T05:02:44;23.60;;;21.30;;
38399;SDS011;24180;42.676;23.320;2023-06-26T05:05:10;21.13;;;17.50;;
38399;SDS011;24180;42.676;23.320;2023-06-26T05:07:36;21.57;;;19.47;;
38399;SDS011;24180;42.676;23.320;2023-06-26T05:10:02;22.70;;;20.60;;
38399;SDS011;24180;42.676;23.320;2023-06-26T05:12:28;20.50;;;18.40;;
38399;SDS011;24180;42.676;23.320;2023-06-26T05:14:53;21.53;;;19.27;;
38399;SDS011;24180;42.676;23.320;2023-06-26T05:17:19;22.30;;;19.93;;
38399;SDS011;24180;42.676;23.320;2023-06-26T05:19:44;21.17;;;19.07;;
38399;SDS011;24180;42.676;23.320;2023-06-26T05:22:09;22.30;;;20.23;;
38399;SDS011;24180;42.676;23.320;2023-06-26T05:24:37;21.97;;;20.07;;
38399;SDS011;24180;42.676;23.320;2023-06-26T05:27:03;21.17;;;19.27;;
38399;SDS011;24180;42.676;23.320;2023-06-26T05:29:33;20.70;;;18.63;;
38399;SDS011;24180;42.676;23.320;2023-06-26T05:31:59;20.40;;;18.20;;
38399;SDS011;24180;42.676;23.320;2023-06-26T05:34:25;22.97;;;20.67;;
38399;SDS011;24180;42.676;23.320;2023-06-26T05:36:55;21.27;;;19.10;;
38399;SDS011;24180;42.676;23.320;2023-06-26T05:39:23;20.13;;;18.17;;
38399;SDS011;24180;42.676;23.320;2023-06-26T05:41:49;24.87;;;22.60;;
38399;SDS011;24180;42.676;23.320;2023-06-26T05:44:15;22.97;;;21.07;;
38399;SDS011;24180;42.676;23.320;2023-06-26T05:46:40;20.30;;;18.30;;
38399;SDS011;24180;42.676;23.320;2023-06-26T05:49:06;19.50;;;17.73;;
38399;SDS011;24180;42.676;23.320;2023-06-26T05:51:31;18.83;;;17.17;;
38399;SDS011;24180;42.676;23.320;2023-06-26T05:53:57;25.60;;;23.50;;
38399;SDS011;24180;42.676;23.320;2023-06-26T05:56:23;20.90;;;18.93;;
38399;SDS011;24180;42.676;23.320;2023-06-26T05:58:49;20.07;;;18.27;;
38399;SDS011;24180;42.676;23.320;2023-06-26T06:01:15;41.60;;;38.77;;
38399;SDS011;24180;42.676;23.320;2023-06-26T06:03:41;17.60;;;15.80;;
38399;SDS011;24180;42.676;23.320;2023-06-26T06:06:06;17.53;;;15.87;;
38399;SDS011;24180;42.676;23.320;2023-06-26T06:08:31;18.73;;;16.57;;
38399;SDS011;24180;42.676;23.320;2023-06-26T06:10:59;17.17;;;15.67;;
38399;SDS011;24180;42.676;23.320;2023-06-26T06:13:26;18.73;;;16.73;;
38399;SDS011;24180;42.676;23.320;2023-06-26T06:15:51;20.13;;;17.90;;
38399;SDS011;24180;42.676;23.320;2023-06-26T06:18:17;19.73;;;18.03;;
38399;SDS011;24180;42.676;23.320;2023-06-26T06:20:42;18.45;;;16.85;;
38399;SDS011;24180;42.676;23.320;2023-06-26T06:23:08;18.60;;;16.77;;
38399;SDS011;24180;42.676;23.320;2023-06-26T06:25:33;17.17;;;15.68;;
38399;SDS011;24180;42.676;23.320;2023-06-26T06:27:58;16.75;;;15.25;;
38399;SDS011;24180;42.676;23.320;2023-06-26T06:30:24;19.05;;;17.25;;
38399;SDS011;24180;42.676;23.320;2023-06-26T06:32:49;17.52;;;16.10;;
38399;SDS011;24180;42.676;23.320;2023-06-26T06:35:16;16.85;;;15.35;;
38399;SDS011;24180;42.676;23.320;2023-06-26T06:37:44;16.98;;;15.38;;
38399;SDS011;24180;42.676;23.320;2023-06-26T06:40:10;17.05;;;15.25;;
38399;SDS011;24180;42.676;23.320;2023-06-26T06:42:36;17.15;;;15.35;;
38399;SDS011;24180;42.676;23.320;2023-06-26T06:45:02;16.30;;;14.88;;
38399;SDS011;24180;42.676;23.320;2023-06-26T06:47:28;15.70;;;14.30;;
38399;SDS011;24180;42.676;23.320;2023-06-26T06:49:53;16.85;;;15.35;;
38399;SDS011;24180;42.676;23.320;2023-06-26T06:52:19;15.50;;;14.00;;
38399;SDS011;24180;42.676;23.320;2023-06-26T06:54:51;22.35;;;20.65;;
38399;SDS011;24180;42.676;23.320;2023-06-26T06:57:18;15.00;;;13.75;;
38399;SDS011;24180;42.676;23.320;2023-06-26T06:59:44;18.38;;;16.77;;
38399;SDS011;24180;42.676;23.320;2023-06-26T07:02:10;17.45;;;16.15;;
38399;SDS011;24180;42.676;23.320;2023-06-26T07:04:35;16.13;;;14.73;;
38399;SDS011;24180;42.676;23.320;2023-06-26T07:07:00;14.85;;;13.65;;
38399;SDS011;24180;42.676;23.320;2023-06-26T07:09:26;11.98;;;10.80;;
38399;SDS011;24180;42.676;23.320;2023-06-26T07:11:51;15.32;;;13.77;;
38399;SDS011;24180;42.676;23.320;2023-06-26T07:14:17;12.57;;;11.40;;
38399;SDS011;24180;42.676;23.320;2023-06-26T07:16:42;15.57;;;14.10;;
38399;SDS011;24180;42.676;23.320;2023-06-26T07:19:07;12.68;;;11.57;;
38399;SDS011;24180;42.676;23.320;2023-06-26T07:21:33;14.80;;;13.32;;
38399;SDS011;24180;42.676;23.320;2023-06-26T07:23:58;11.68;;;10.55;;
38399;SDS011;24180;42.676;23.320;2023-06-26T07:26:23;12.77;;;11.55;;
38399;SDS011;24180;42.676;23.320;2023-06-26T07:28:49;11.90;;;10.90;;
38399;SDS011;24180;42.676;23.320;2023-06-26T07:31:14;11.00;;;10.00;;
38399;SDS011;24180;42.676;23.320;2023-06-26T07:33:41;9.27;;;8.57;;
38399;SDS011;24180;42.676;23.320;2023-06-26T07:36:07;11.45;;;10.55;;
38399;SDS011;24180;42.676;23.320;2023-06-26T07:38:32;8.88;;;7.97;;
38399;SDS011;24180;42.676;23.320;2023-06-26T07:40:58;9.30;;;8.60;;
38399;SDS011;24180;42.676;23.320;2023-06-26T07:43:23;9.27;;;8.48;;
38399;SDS011;24180;42.676;23.320;2023-06-26T07:45:49;10.73;;;9.93;;
38399;SDS011;24180;42.676;23.320;2023-06-26T07:48:16;10.18;;;9.38;;
38399;SDS011;24180;42.676;23.320;2023-06-26T07:50:42;10.05;;;9.15;;
38399;SDS011;24180;42.676;23.320;2023-06-26T07:53:07;10.68;;;8.88;;
38399;SDS011;24180;42.676;23.320;2023-06-26T07:55:33;9.63;;;8.80;;
38399;SDS011;24180;42.676;23.320;2023-06-26T07:57:59;10.57;;;9.60;;
38399;SDS011;24180;42.676;23.320;2023-06-26T08:00:24;11.65;;;10.60;;
38399;SDS011;24180;42.676;23.320;2023-06-26T08:02:50;10.18;;;9.27;;
38399;SDS011;24180;42.676;23.320;2023-06-26T08:05:15;10.68;;;9.85;;
38399;SDS011;24180;42.676;23.320;2023-06-26T08:07:41;12.20;;;11.25;;
38399;SDS011;24180;42.676;23.320;2023-06-26T08:10:06;9.13;;;8.32;;
38399;SDS011;24180;42.676;23.320;2023-06-26T08:12:32;8.05;;;7.32;;
38399;SDS011;24180;42.676;23.320;2023-06-26T08:14:57;10.50;;;9.50;;
38399;SDS011;24180;42.676;23.320;2023-06-26T08:17:22;9.90;;;9.05;;
38399;SDS011;24180;42.676;23.320;2023-06-26T08:19:48;11.10;;;9.13;;
38399;SDS011;24180;42.676;23.320;2023-06-26T08:22:13;9.05;;;8.35;;
38399;SDS011;24180;42.676;23.320;2023-06-26T08:24:39;9.95;;;8.73;;
38399;SDS011;24180;42.676;23.320;2023-06-26T08:27:04;9.93;;;9.10;;
38399;SDS011;24180;42.676;23.320;2023-06-26T08:29:30;9.77;;;8.85;;
38399;SDS011;24180;42.676;23.320;2023-06-26T08:31:56;9.88;;;9.15;;
38399;SDS011;24180;42.676;23.320;2023-06-26T08:34:21;11.75;;;10.80;;
38399;SDS011;24180;42.676;23.320;2023-06-26T08:36:47;10.23;;;9.32;;
38399;SDS011;24180;42.676;23.320;2023-06-26T08:39:12;11.15;;;10.25;;
38399;SDS011;24180;42.676;23.320;2023-06-26T08:41:38;11.35;;;10.45;;
38399;SDS011;24180;42.676;23.320;2023-06-26T08:44:03;10.20;;;9.25;;
38399;SDS011;24180;42.676;23.320;2023-06-26T08:46:29;8.95;;;8.15;;
38399;SDS011;24180;42.676;23.320;2023-06-26T08:48:56;9.50;;;8.50;;
38399;SDS011;24180;42.676;23.320;2023-06-26T08:51:25;9.73;;;8.93;;
38399;SDS011;24180;42.676;23.320;2023-06-26T08:53:57;8.80;;;8.00;;
38399;SDS011;24180;42.676;23.320;2023-06-26T08:56:24;7.88;;;7.28;;
38399;SDS011;24180;42.676;23.320;2023-06-26T08:58:53;8.50;;;7.88;;
38399;SDS011;24180;42.676;23.320;2023-06-26T09:01:21;9.50;;;8.60;;
38399;SDS011;24180;42.676;23.320;2023-06-26T09:03:46;8.95;;;8.05;;
38399;SDS011;24180;42.676;23.320;2023-06-26T09:06:12;8.82;;;8.02;;
38399;SDS011;24180;42.676;23.320;2023-06-26T09:08:37;8.77;;;7.88;;
38399;SDS011;24180;42.676;23.320;2023-06-26T09:11:03;9.52;;;8.68;;
38399;SDS011;24180;42.676;23.320;2023-06-26T09:13:29;13.52;;;9.52;;
38399;SDS011;24180;42.676;23.320;2023-06-26T09:15:55;11.10;;;10.30;;
38399;SDS011;24180;42.676;23.320;2023-06-26T09:18:20;8.45;;;7.75;;
38399;SDS011;24180;42.676;23.320;2023-06-26T09:20:46;10.43;;;8.18;;
38399;SDS011;24180;42.676;23.320;2023-06-26T09:23:12;9.50;;;8.77;;
38399;SDS011;24180;42.676;23.320;2023-06-26T09:25:41;6.97;;;6.47;;
38399;SDS011;24180;42.676;23.320;2023-06-26T09:28:08;8.05;;;7.35;;
38399;SDS011;24180;42.676;23.320;2023-06-26T09:30:34;9.32;;;8.63;;
38399;SDS011;24180;42.676;23.320;2023-06-26T09:33:12;9.35;;;8.55;;
38399;SDS011;24180;42.676;23.320;2023-06-26T09:35:45;7.50;;;6.82;;
38399;SDS011;24180;42.676;23.320;2023-06-26T09:38:12;8.82;;;7.95;;
38399;SDS011;24180;42.676;23.320;2023-06-26T09:40:38;9.00;;;8.20;;
38399;SDS011;24180;42.676;23.320;2023-06-26T09:43:04;8.38;;;7.63;;
38399;SDS011;24180;42.676;23.320;2023-06-26T09:45:32;11.52;;;8.85;;
38399;SDS011;24180;42.676;23.320;2023-06-26T09:48:01;10.07;;;9.10;;
38399;SDS011;24180;42.676;23.320;2023-06-26T09:50:29;8.88;;;8.18;;
38399;SDS011;24180;42.676;23.320;2023-06-26T09:52:55;8.13;;;7.53;;
38399;SDS011;24180;42.676;23.320;2023-06-26T09:55:21;8.38;;;7.72;;
38399;SDS011;24180;42.676;23.320;2023-06-26T09:57:47;8.45;;;7.72;;
38399;SDS011;24180;42.676;23.320;2023-06-26T10:00:15;7.85;;;7.25;;
38399;SDS011;24180;42.676;23.320;2023-06-26T10:02:41;7.88;;;7.15;;
38399;SDS011;24180;42.676;23.320;2023-06-26T10:05:06;9.40;;;8.50;;
38399;SDS011;24180;42.676;23.320;2023-06-26T10:07:32;7.38;;;6.68;;
38399;SDS011;24180;42.676;23.320;2023-06-26T10:09:58;7.32;;;6.65;;
38399;SDS011;24180;42.676;23.320;2023-06-26T10:12:28;7.22;;;6.63;;
38399;SDS011;24180;42.676;23.320;2023-06-26T10:14:57;7.10;;;6.60;;
38399;SDS011;24180;42.676;23.320;2023-06-26T10:17:27;7.57;;;6.88;;
38399;SDS011;24180;42.676;23.320;2023-06-26T10:19:55;7.53;;;6.93;;
38399;SDS011;24180;42.676;23.320;2023-06-26T10:22:25;8.35;;;7.43;;
38399;SDS011;24180;42.676;23.320;2023-06-26T10:24:54;7.45;;;6.75;;
38399;SDS011;24180;42.676;23.320;2023-06-26T10:27:25;8.60;;;7.53;;
38399;SDS011;24180;42.676;23.320;2023-06-26T10:29:56;7.97;;;7.38;;
38399;SDS011;24180;42.676;23.320;2023-06-26T10:32:27;7.88;;;7.18;;
38399;SDS011;24180;42.676;23.320;2023-06-26T10:34:55;7.63;;;6.93;;
38399;SDS011;24180;42.676;23.320;2023-06-26T10:37:21;14.45;;;13.32;;
38399;SDS011;24180;42.676;23.320;2023-06-26T10:40:06;12.52;;;11.63;;
38399;SDS011;24180;42.676;23.320;2023-06-26T10:42:36;12.57;;;11.38;;
38399;SDS011;24180;42.676;23.320;2023-06-26T10:45:36;10.25;;;9.35;;
38399;SDS011;24180;42.676;23.320;2023-06-26T10:47:54;10.60;;;9.70;;
38399;SDS011;24180;42.676;23.320;2023-06-26T10:50:29;8.07;;;7.30;;
38399;SDS011;24180;42.676;23.320;2023-06-26T10:56:17;7.88;;;7.07;;
38399;SDS011;24180;42.676;23.320;2023-06-26T11:03:40;9.65;;;8.95;;
38399;SDS011;24180;42.676;23.320;2023-06-26T11:06:13;10.43;;;8.55;;
38399;SDS011;24180;42.676;23.320;2023-06-26T11:11:13;8.55;;;7.95;;
38399;SDS011;24180;42.676;23.320;2023-06-26T11:13:40;8.00;;;7.30;;
38399;SDS011;24180;42.676;23.320;2023-06-26T11:16:06;7.43;;;6.72;;
38399;SDS011;24180;42.676;23.320;2023-06-26T11:18:32;9.05;;;8.25;;
38399;SDS011;24180;42.676;23.320;2023-06-26T11:21:07;9.27;;;8.57;;
38399;SDS011;24180;42.676;23.320;2023-06-26T11:23:34;8.77;;;7.93;;
38399;SDS011;24180;42.676;23.320;2023-06-26T11:28:50;8.85;;;8.05;;
38399;SDS011;24180;42.676;23.320;2023-06-26T11:31:27;8.32;;;7.60;;
38399;SDS011;24180;42.676;23.320;2023-06-26T11:34:00;8.02;;;7.32;;
38399;SDS011;24180;42.676;23.320;2023-06-26T11:36:28;7.70;;;7.10;;
38399;SDS011;24180;42.676;23.320;2023-06-26T11:38:57;7.63;;;7.03;;
38399;SDS011;24180;42.676;23.320;2023-06-26T11:41:25;7.40;;;6.70;;
38399;SDS011;24180;42.676;23.320;2023-06-26T11:43:52;7.60;;;7.00;;
38399;SDS011;24180;42.676;23.320;2023-06-26T11:46:18;7.90;;;7.30;;
38399;SDS011;24180;42.676;23.320;2023-06-26T11:48:44;8.13;;;7.40;;
38399;SDS011;24180;42.676;23.320;2023-06-26T11:51:12;9.07;;;7.60;;
38399;SDS011;24180;42.676;23.320;2023-06-26T11:53:40;7.63;;;6.93;;
38399;SDS011;24180;42.676;23.320;2023-06-26T11:56:16;8.50;;;7.80;;
38399;SDS011;24180;42.676;23.320;2023-06-26T11:58:55;8.20;;;7.50;;
38399;SDS011;24180;42.676;23.320;2023-06-26T12:01:31;8.18;;;7.45;;
38399;SDS011;24180;42.676;23.320;2023-06-26T12:03:59;8.23;;;7.57;;
38399;SDS011;24180;42.676;23.320;2023-06-26T12:06:27;7.43;;;6.82;;
38399;SDS011;24180;42.676;23.320;2023-06-26T12:08:53;6.97;;;6.47;;
38399;SDS011;24180;42.676;23.320;2023-06-26T12:11:19;7.00;;;6.20;;
38399;SDS011;24180;42.676;23.320;2023-06-26T12:13:48;7.95;;;7.15;;
38399;SDS011;24180;42.676;23.320;2023-06-26T12:16:14;7.25;;;6.65;;
38399;SDS011;24180;42.676;23.320;2023-06-26T12:18:39;7.40;;;6.72;;
38399;SDS011;24180;42.676;23.320;2023-06-26T12:21:05;6.65;;;6.15;;
38399;SDS011;24180;42.676;23.320;2023-06-26T12:23:38;6.93;;;6.32;;
38399;SDS011;24180;42.676;23.320;2023-06-26T12:26:20;8.48;;;6.38;;
38399;SDS011;24180;42.676;23.320;2023-06-26T12:28:46;6.53;;;5.95;;
38399;SDS011;24180;42.676;23.320;2023-06-26T12:31:13;8.13;;;7.57;;
38399;SDS011;24180;42.676;23.320;2023-06-26T12:33:39;7.93;;;7.13;;
38399;SDS011;24180;42.676;23.320;2023-06-26T12:36:04;8.23;;;6.85;;
38399;SDS011;24180;42.676;23.320;2023-06-26T12:38:35;7.47;;;6.80;;
38399;SDS011;24180;42.676;23.320;2023-06-26T12:41:01;7.20;;;6.60;;
38399;SDS011;24180;42.676;23.320;2023-06-26T12:43:26;8.40;;;6.95;;
38399;SDS011;24180;42.676;23.320;2023-06-26T12:45:55;8.40;;;7.70;;
38399;SDS011;24180;42.676;23.320;2023-06-26T12:48:21;9.07;;;7.43;;
38399;SDS011;24180;42.676;23.320;2023-06-26T12:51:07;8.95;;;8.07;;
38399;SDS011;24180;42.676;23.320;2023-06-26T12:53:33;8.70;;;7.60;;
38399;SDS011;24180;42.676;23.320;2023-06-26T12:55:59;8.20;;;7.47;;
38399;SDS011;24180;42.676;23.320;2023-06-26T12:58:24;7.93;;;7.32;;
38399;SDS011;24180;42.676;23.320;2023-06-26T13:00:49;8.13;;;7.32;;
38399;SDS011;24180;42.676;23.320;2023-06-26T13:03:15;8.52;;;7.72;;
38399;SDS011;24180;42.676;23.320;2023-06-26T13:05:40;8.57;;;7.85;;
38399;SDS011;24180;42.676;23.320;2023-06-26T13:08:05;8.55;;;7.85;;
38399;SDS011;24180;42.676;23.320;2023-06-26T13:10:31;8.60;;;7.90;;
38399;SDS011;24180;42.676;23.320;2023-06-26T13:12:56;8.82;;;8.00;;
38399;SDS011;24180;42.676;23.320;2023-06-26T13:15:22;8.13;;;7.45;;
38399;SDS011;24180;42.676;23.320;2023-06-26T13:17:47;9.95;;;6.80;;
38399;SDS011;24180;42.676;23.320;2023-06-26T13:20:12;8.05;;;7.35;;
38399;SDS011;24180;42.676;23.320;2023-06-26T13:22:38;7.32;;;6.63;;
38399;SDS011;24180;42.676;23.320;2023-06-26T13:25:04;8.35;;;7.55;;
38399;SDS011;24180;42.676;23.320;2023-06-26T13:27:29;7.85;;;7.25;;
38399;SDS011;24180;42.676;23.320;2023-06-26T13:29:55;8.20;;;7.50;;
38399;SDS011;24180;42.676;23.320;2023-06-26T13:32:20;7.80;;;7.10;;
38399;SDS011;24180;42.676;23.320;2023-06-26T13:34:46;8.55;;;7.85;;
38399;SDS011;24180;42.676;23.320;2023-06-26T13:37:11;7.82;;;7.20;;
38399;SDS011;24180;42.676;23.320;2023-06-26T13:39:37;7.32;;;6.72;;
38399;SDS011;24180;42.676;23.320;2023-06-26T13:42:02;7.88;;;7.18;;
38399;SDS011;24180;42.676;23.320;2023-06-26T13:44:28;8.07;;;7.10;;
38399;SDS011;24180;42.676;23.320;2023-06-26T13:46:53;7.00;;;6.40;;
38399;SDS011;24180;42.676;23.320;2023-06-26T13:49:19;7.85;;;7.25;;
38399;SDS011;24180;42.676;23.320;2023-06-26T13:51:44;7.80;;;7.18;;
38399;SDS011;24180;42.676;23.320;2023-06-26T13:54:12;9.95;;;7.13;;
38399;SDS011;24180;42.676;23.320;2023-06-26T13:56:37;7.50;;;6.82;;
38399;SDS011;24180;42.676;23.320;2023-06-26T13:59:03;8.02;;;7.43;;
38399;SDS011;24180;42.676;23.320;2023-06-26T14:01:29;8.52;;;7.82;;
38399;SDS011;24180;42.676;23.320;2023-06-26T14:03:55;7.95;;;7.25;;
38399;SDS011;24180;42.676;23.320;2023-06-26T14:06:20;8.23;;;7.43;;
38399;SDS011;24180;42.676;23.320;2023-06-26T14:08:46;9.00;;;8.23;;
38399;SDS011;24180;42.676;23.320;2023-06-26T14:11:11;8.57;;;7.80;;
38399;SDS011;24180;42.676;23.320;2023-06-26T14:13:36;7.93;;;7.25;;
38399;SDS011;24180;42.676;23.320;2023-06-26T14:16:02;9.88;;;8.02;;
38399;SDS011;24180;42.676;23.320;2023-06-26T14:18:29;8.80;;;8.00;;
38399;SDS011;24180;42.676;23.320;2023-06-26T14:20:54;8.60;;;7.90;;
38399;SDS011;24180;42.676;23.320;2023-06-26T14:23:19;8.35;;;7.22;;
38399;SDS011;24180;42.676;23.320;2023-06-26T14:25:45;9.40;;;7.13;;
38399;SDS011;24180;42.676;23.320;2023-06-26T14:28:10;11.00;;;7.80;;
38399;SDS011;24180;42.676;23.320;2023-06-26T14:30:36;8.10;;;7.40;;
38399;SDS011;24180;42.676;23.320;2023-06-26T14:33:01;9.45;;;7.95;;